sensor_id;sensor_type;location;lat;lon;timestamp;P1;durP1;ratioP1;P2;durP2;ratioP2
34019;SDS011;20895;51.034;3.742;2023-03-14T00:01:26;5.65;;;1.75;;
34019;SDS011;20895;51.034;3.742;2023-03-14T00:03:52;10.63;;;2.42;;
34019;SDS011;20895;51.034;3.742;2023-03-14T00:06:17;7.18;;;1.27;;
34019;SDS011;20895;51.034;3.742;2023-03-14T00:08:43;7.75;;;1.85;;
34019;SDS011;20895;51.034;3.742;2023-03-14T00:11:10;4.97;;;1.38;;
34019;SDS011;20895;51.034;3.742;2023-03-14T00:13:36;9.60;;;1.85;;
34019;SDS011;20895;51.034;3.742;2023-03-14T00:16:05;5.53;;;1.55;;
34019;SDS011;20895;51.034;3.742;2023-03-14T00:18:31;7.85;;;1.60;;
34019;SDS011;20895;51.034;3.742;2023-03-14T00:20:57;7.55;;;1.40;;
34019;SDS011;20895;51.034;3.742;2023-03-14T00:23:23;9.77;;;1.50;;
34019;SDS011;20895;51.034;3.742;2023-03-14T00:25:48;5.22;;;1.30;;
34019;SDS011;20895;51.034;3.742;2023-03-14T00:28:14;8.98;;;1.80;;
34019;SDS011;20895;51.034;3.742;2023-03-14T00:30:39;7.45;;;1.60;;
34019;SDS011;20895;51.034;3.742;2023-03-14T00:33:04;6.88;;;1.80;;
34019;SDS011;20895;51.034;3.742;2023-03-14T00:35:29;5.32;;;1.50;;
34019;SDS011;20895;51.034;3.742;2023-03-14T00:37:55;5.93;;;1.63;;
34019;SDS011;20895;51.034;3.742;2023-03-14T00:40:20;6.38;;;1.67;;
34019;SDS011;20895;51.034;3.742;2023-03-14T00:42:45;9.00;;;2.30;;
34019;SDS011;20895;51.034;3.742;2023-03-14T00:45:11;6.85;;;1.70;;
34019;SDS011;20895;51.034;3.742;2023-03-14T00:47:36;8.93;;;2.20;;
34019;SDS011;20895;51.034;3.742;2023-03-14T00:50:01;10.48;;;1.67;;
34019;SDS011;20895;51.034;3.742;2023-03-14T00:52:27;7.88;;;1.70;;
34019;SDS011;20895;51.034;3.742;2023-03-14T00:54:52;8.77;;;2.40;;
34019;SDS011;20895;51.034;3.742;2023-03-14T00:57:17;10.52;;;2.08;;
34019;SDS011;20895;51.034;3.742;2023-03-14T00:59:43;9.45;;;2.30;;
34019;SDS011;20895;51.034;3.742;2023-03-14T01:02:08;9.85;;;2.20;;
34019;SDS011;20895;51.034;3.742;2023-03-14T01:04:33;13.10;;;2.28;;
34019;SDS011;20895;51.034;3.742;2023-03-14T01:06:59;8.82;;;2.10;;
34019;SDS011;20895;51.034;3.742;2023-03-14T01:09:25;13.73;;;2.85;;
34019;SDS011;20895;51.034;3.742;2023-03-14T01:11:50;8.43;;;3.00;;
34019;SDS011;20895;51.034;3.742;2023-03-14T01:14:15;7.90;;;1.88;;
34019;SDS011;20895;51.034;3.742;2023-03-14T01:16:40;6.68;;;1.95;;
34019;SDS011;20895;51.034;3.742;2023-03-14T01:19:06;8.45;;;1.90;;
34019;SDS011;20895;51.034;3.742;2023-03-14T01:21:33;12.55;;;2.08;;
34019;SDS011;20895;51.034;3.742;2023-03-14T01:23:59;11.05;;;1.85;;
34019;SDS011;20895;51.034;3.742;2023-03-14T01:26:25;8.85;;;2.22;;
34019;SDS011;20895;51.034;3.742;2023-03-14T01:28:52;10.65;;;1.55;;
34019;SDS011;20895;51.034;3.742;2023-03-14T01:31:17;6.22;;;1.52;;
34019;SDS011;20895;51.034;3.742;2023-03-14T01:33:43;8.27;;;2.10;;
34019;SDS011;20895;51.034;3.742;2023-03-14T01:36:09;7.60;;;2.50;;
34019;SDS011;20895;51.034;3.742;2023-03-14T01:38:35;6.93;;;2.35;;
34019;SDS011;20895;51.034;3.742;2023-03-14T01:41:00;9.40;;;2.00;;
34019;SDS011;20895;51.034;3.742;2023-03-14T01:43:27;8.55;;;2.00;;
34019;SDS011;20895;51.034;3.742;2023-03-14T01:48:24;7.20;;;1.70;;
34019;SDS011;20895;51.034;3.742;2023-03-14T01:50:50;10.23;;;1.63;;
34019;SDS011;20895;51.034;3.742;2023-03-14T01:53:15;7.85;;;1.33;;
34019;SDS011;20895;51.034;3.742;2023-03-14T01:55:41;11.13;;;2.05;;
34019;SDS011;20895;51.034;3.742;2023-03-14T01:58:06;9.15;;;3.08;;
34019;SDS011;20895;51.034;3.742;2023-03-14T02:00:32;5.65;;;1.48;;
34019;SDS011;20895;51.034;3.742;2023-03-14T02:03:01;8.52;;;2.35;;
34019;SDS011;20895;51.034;3.742;2023-03-14T02:05:31;5.60;;;1.65;;
34019;SDS011;20895;51.034;3.742;2023-03-14T02:07:58;8.98;;;2.33;;
34019;SDS011;20895;51.034;3.742;2023-03-14T02:10:27;6.50;;;1.60;;
34019;SDS011;20895;51.034;3.742;2023-03-14T02:12:55;8.93;;;2.10;;
34019;SDS011;20895;51.034;3.742;2023-03-14T02:15:20;5.30;;;1.38;;
34019;SDS011;20895;51.034;3.742;2023-03-14T02:17:46;11.80;;;1.98;;
34019;SDS011;20895;51.034;3.742;2023-03-14T02:22:55;3.80;;;1.00;;
34019;SDS011;20895;51.034;3.742;2023-03-14T02:28:01;5.40;;;1.23;;
34019;SDS011;20895;51.034;3.742;2023-03-14T02:30:27;3.20;;;0.95;;
34019;SDS011;20895;51.034;3.742;2023-03-14T02:33:00;4.78;;;1.10;;
34019;SDS011;20895;51.034;3.742;2023-03-14T02:35:28;1.88;;;0.90;;
34019;SDS011;20895;51.034;3.742;2023-03-14T02:40:23;7.03;;;1.90;;
34019;SDS011;20895;51.034;3.742;2023-03-14T02:42:48;3.58;;;1.35;;
34019;SDS011;20895;51.034;3.742;2023-03-14T02:47:54;2.60;;;0.73;;
34019;SDS011;20895;51.034;3.742;2023-03-14T02:50:22;7.70;;;1.50;;
34019;SDS011;20895;51.034;3.742;2023-03-14T02:52:48;6.28;;;1.80;;
34019;SDS011;20895;51.034;3.742;2023-03-14T02:55:14;5.80;;;1.73;;
34019;SDS011;20895;51.034;3.742;2023-03-14T02:57:39;7.60;;;2.10;;
34019;SDS011;20895;51.034;3.742;2023-03-14T03:00:04;8.10;;;2.25;;
34019;SDS011;20895;51.034;3.742;2023-03-14T03:02:30;7.05;;;2.35;;
34019;SDS011;20895;51.034;3.742;2023-03-14T03:04:55;7.00;;;2.03;;
34019;SDS011;20895;51.034;3.742;2023-03-14T03:07:20;8.00;;;2.45;;
34019;SDS011;20895;51.034;3.742;2023-03-14T03:09:46;8.07;;;2.15;;
34019;SDS011;20895;51.034;3.742;2023-03-14T03:12:11;8.85;;;1.92;;
34019;SDS011;20895;51.034;3.742;2023-03-14T03:14:37;2.65;;;0.90;;
34019;SDS011;20895;51.034;3.742;2023-03-14T03:17:02;6.10;;;1.95;;
34019;SDS011;20895;51.034;3.742;2023-03-14T03:19:28;4.72;;;1.55;;
34019;SDS011;20895;51.034;3.742;2023-03-14T03:21:53;3.83;;;1.65;;
34019;SDS011;20895;51.034;3.742;2023-03-14T03:24:18;5.80;;;1.40;;
34019;SDS011;20895;51.034;3.742;2023-03-14T03:26:44;7.53;;;1.60;;
34019;SDS011;20895;51.034;3.742;2023-03-14T03:29:09;6.38;;;1.88;;
34019;SDS011;20895;51.034;3.742;2023-03-14T03:31:36;3.60;;;1.50;;
34019;SDS011;20895;51.034;3.742;2023-03-14T03:34:01;5.70;;;1.83;;
34019;SDS011;20895;51.034;3.742;2023-03-14T03:36:27;5.47;;;1.60;;
34019;SDS011;20895;51.034;3.742;2023-03-14T03:38:52;8.27;;;2.92;;
34019;SDS011;20895;51.034;3.742;2023-03-14T03:41:17;6.50;;;2.20;;
34019;SDS011;20895;51.034;3.742;2023-03-14T03:43:43;10.07;;;2.65;;
34019;SDS011;20895;51.034;3.742;2023-03-14T03:46:08;7.53;;;1.85;;
34019;SDS011;20895;51.034;3.742;2023-03-14T03:48:34;5.93;;;2.05;;
34019;SDS011;20895;51.034;3.742;2023-03-14T03:50:59;3.65;;;1.40;;
34019;SDS011;20895;51.034;3.742;2023-03-14T03:53:24;9.27;;;2.35;;
34019;SDS011;20895;51.034;3.742;2023-03-14T03:55:50;5.53;;;2.20;;
34019;SDS011;20895;51.034;3.742;2023-03-14T03:58:15;5.50;;;2.33;;
34019;SDS011;20895;51.034;3.742;2023-03-14T04:00:40;5.88;;;2.50;;
34019;SDS011;20895;51.034;3.742;2023-03-14T04:03:06;5.45;;;2.33;;
34019;SDS011;20895;51.034;3.742;2023-03-14T04:05:31;7.53;;;2.72;;
34019;SDS011;20895;51.034;3.742;2023-03-14T04:07:56;7.47;;;3.22;;
34019;SDS011;20895;51.034;3.742;2023-03-14T04:10:22;8.93;;;3.72;;
34019;SDS011;20895;51.034;3.742;2023-03-14T04:12:47;12.75;;;2.80;;
34019;SDS011;20895;51.034;3.742;2023-03-14T04:15:12;9.60;;;3.08;;
34019;SDS011;20895;51.034;3.742;2023-03-14T04:17:37;12.80;;;3.47;;
34019;SDS011;20895;51.034;3.742;2023-03-14T04:20:03;8.13;;;3.88;;
34019;SDS011;20895;51.034;3.742;2023-03-14T04:22:29;7.40;;;3.95;;
34019;SDS011;20895;51.034;3.742;2023-03-14T04:24:54;10.70;;;4.20;;
34019;SDS011;20895;51.034;3.742;2023-03-14T04:27:20;10.57;;;6.38;;
34019;SDS011;20895;51.034;3.742;2023-03-14T04:29:45;9.60;;;4.10;;
34019;SDS011;20895;51.034;3.742;2023-03-14T04:32:10;10.43;;;4.85;;
34019;SDS011;20895;51.034;3.742;2023-03-14T04:34:35;6.57;;;3.88;;
34019;SDS011;20895;51.034;3.742;2023-03-14T04:37:01;11.38;;;4.47;;
34019;SDS011;20895;51.034;3.742;2023-03-14T04:39:26;7.05;;;3.42;;
34019;SDS011;20895;51.034;3.742;2023-03-14T04:41:51;12.35;;;4.10;;
34019;SDS011;20895;51.034;3.742;2023-03-14T04:44:17;15.38;;;3.10;;
34019;SDS011;20895;51.034;3.742;2023-03-14T04:46:42;7.20;;;2.70;;
34019;SDS011;20895;51.034;3.742;2023-03-14T04:49:07;5.70;;;2.08;;
34019;SDS011;20895;51.034;3.742;2023-03-14T04:51:33;6.35;;;2.20;;
34019;SDS011;20895;51.034;3.742;2023-03-14T04:53:58;2.85;;;1.30;;
34019;SDS011;20895;51.034;3.742;2023-03-14T04:56:23;5.57;;;1.98;;
34019;SDS011;20895;51.034;3.742;2023-03-14T04:58:48;7.10;;;1.60;;
34019;SDS011;20895;51.034;3.742;2023-03-14T05:01:14;3.70;;;1.48;;
34019;SDS011;20895;51.034;3.742;2023-03-14T05:03:39;3.08;;;1.30;;
34019;SDS011;20895;51.034;3.742;2023-03-14T05:06:04;3.72;;;1.63;;
34019;SDS011;20895;51.034;3.742;2023-03-14T05:08:30;4.63;;;1.55;;
34019;SDS011;20895;51.034;3.742;2023-03-14T05:10:55;2.95;;;1.30;;
34019;SDS011;20895;51.034;3.742;2023-03-14T05:13:21;2.28;;;1.25;;
34019;SDS011;20895;51.034;3.742;2023-03-14T05:15:47;3.85;;;2.15;;
34019;SDS011;20895;51.034;3.742;2023-03-14T05:18:12;3.33;;;1.50;;
34019;SDS011;20895;51.034;3.742;2023-03-14T05:20:38;4.55;;;2.47;;
34019;SDS011;20895;51.034;3.742;2023-03-14T05:23:03;3.10;;;1.83;;
34019;SDS011;20895;51.034;3.742;2023-03-14T05:25:28;5.40;;;3.25;;
34019;SDS011;20895;51.034;3.742;2023-03-14T05:27:54;7.30;;;2.15;;
34019;SDS011;20895;51.034;3.742;2023-03-14T05:30:20;6.43;;;1.48;;
34019;SDS011;20895;51.034;3.742;2023-03-14T05:32:46;6.78;;;2.30;;
34019;SDS011;20895;51.034;3.742;2023-03-14T05:35:11;6.88;;;1.98;;
34019;SDS011;20895;51.034;3.742;2023-03-14T05:37:37;8.75;;;2.78;;
34019;SDS011;20895;51.034;3.742;2023-03-14T05:40:02;6.57;;;1.70;;
34019;SDS011;20895;51.034;3.742;2023-03-14T05:42:28;5.22;;;2.03;;
34019;SDS011;20895;51.034;3.742;2023-03-14T05:44:53;4.10;;;2.10;;
34019;SDS011;20895;51.034;3.742;2023-03-14T05:47:18;1.75;;;1.55;;
34019;SDS011;20895;51.034;3.742;2023-03-14T05:49:43;4.78;;;2.03;;
34019;SDS011;20895;51.034;3.742;2023-03-14T05:52:09;3.75;;;2.17;;
34019;SDS011;20895;51.034;3.742;2023-03-14T05:54:34;4.60;;;2.45;;
34019;SDS011;20895;51.034;3.742;2023-03-14T05:56:59;2.83;;;2.15;;
34019;SDS011;20895;51.034;3.742;2023-03-14T05:59:25;3.88;;;2.30;;
34019;SDS011;20895;51.034;3.742;2023-03-14T06:01:50;10.00;;;3.33;;
34019;SDS011;20895;51.034;3.742;2023-03-14T06:04:15;5.43;;;2.78;;
34019;SDS011;20895;51.034;3.742;2023-03-14T06:06:40;8.95;;;3.25;;
34019;SDS011;20895;51.034;3.742;2023-03-14T06:09:06;6.57;;;2.35;;
34019;SDS011;20895;51.034;3.742;2023-03-14T06:11:31;4.65;;;1.48;;
34019;SDS011;20895;51.034;3.742;2023-03-14T06:13:56;4.63;;;2.20;;
34019;SDS011;20895;51.034;3.742;2023-03-14T06:16:22;5.05;;;1.92;;
34019;SDS011;20895;51.034;3.742;2023-03-14T06:18:47;7.38;;;2.90;;
34019;SDS011;20895;51.034;3.742;2023-03-14T06:21:14;3.40;;;1.52;;
34019;SDS011;20895;51.034;3.742;2023-03-14T06:23:39;2.33;;;1.45;;
34019;SDS011;20895;51.034;3.742;2023-03-14T06:26:04;2.10;;;1.48;;
34019;SDS011;20895;51.034;3.742;2023-03-14T06:28:30;2.72;;;1.80;;
34019;SDS011;20895;51.034;3.742;2023-03-14T06:30:55;3.38;;;1.58;;
34019;SDS011;20895;51.034;3.742;2023-03-14T06:33:20;8.30;;;1.95;;
34019;SDS011;20895;51.034;3.742;2023-03-14T06:35:45;2.30;;;1.45;;
34019;SDS011;20895;51.034;3.742;2023-03-14T06:38:11;8.30;;;2.22;;
34019;SDS011;20895;51.034;3.742;2023-03-14T06:40:36;9.38;;;3.13;;
34019;SDS011;20895;51.034;3.742;2023-03-14T06:43:01;4.45;;;2.42;;
34019;SDS011;20895;51.034;3.742;2023-03-14T06:45:27;8.05;;;2.47;;
34019;SDS011;20895;51.034;3.742;2023-03-14T06:47:52;6.65;;;3.15;;
34019;SDS011;20895;51.034;3.742;2023-03-14T06:50:17;2.88;;;1.95;;
34019;SDS011;20895;51.034;3.742;2023-03-14T06:52:42;4.15;;;2.28;;
34019;SDS011;20895;51.034;3.742;2023-03-14T06:55:12;6.30;;;3.72;;
34019;SDS011;20895;51.034;3.742;2023-03-14T06:57:38;4.47;;;2.75;;
34019;SDS011;20895;51.034;3.742;2023-03-14T07:00:03;9.48;;;3.08;;
34019;SDS011;20895;51.034;3.742;2023-03-14T07:02:29;4.38;;;2.33;;
34019;SDS011;20895;51.034;3.742;2023-03-14T07:04:55;9.40;;;4.10;;
34019;SDS011;20895;51.034;3.742;2023-03-14T07:07:20;13.55;;;4.90;;
34019;SDS011;20895;51.034;3.742;2023-03-14T07:09:45;7.43;;;4.38;;
34019;SDS011;20895;51.034;3.742;2023-03-14T07:12:11;10.55;;;4.68;;
34019;SDS011;20895;51.034;3.742;2023-03-14T07:14:36;15.73;;;4.10;;
34019;SDS011;20895;51.034;3.742;2023-03-14T07:17:01;5.88;;;3.35;;
34019;SDS011;20895;51.034;3.742;2023-03-14T07:19:26;6.15;;;3.55;;
34019;SDS011;20895;51.034;3.742;2023-03-14T07:21:52;5.55;;;2.65;;
34019;SDS011;20895;51.034;3.742;2023-03-14T07:24:17;5.50;;;3.05;;
34019;SDS011;20895;51.034;3.742;2023-03-14T07:26:42;5.68;;;2.30;;
34019;SDS011;20895;51.034;3.742;2023-03-14T07:29:08;9.05;;;3.47;;
34019;SDS011;20895;51.034;3.742;2023-03-14T07:31:33;6.47;;;3.00;;
34019;SDS011;20895;51.034;3.742;2023-03-14T07:33:58;7.05;;;4.38;;
34019;SDS011;20895;51.034;3.742;2023-03-14T07:36:24;3.38;;;1.80;;
34019;SDS011;20895;51.034;3.742;2023-03-14T07:38:49;7.45;;;2.50;;
34019;SDS011;20895;51.034;3.742;2023-03-14T07:41:14;2.80;;;1.60;;
34019;SDS011;20895;51.034;3.742;2023-03-14T07:43:40;5.47;;;1.98;;
34019;SDS011;20895;51.034;3.742;2023-03-14T07:46:05;2.95;;;1.60;;
34019;SDS011;20895;51.034;3.742;2023-03-14T07:48:31;7.68;;;2.70;;
34019;SDS011;20895;51.034;3.742;2023-03-14T07:50:56;2.75;;;1.67;;
34019;SDS011;20895;51.034;3.742;2023-03-14T07:53:22;3.97;;;1.88;;
34019;SDS011;20895;51.034;3.742;2023-03-14T07:55:47;4.43;;;1.60;;
34019;SDS011;20895;51.034;3.742;2023-03-14T07:58:13;3.55;;;1.90;;
34019;SDS011;20895;51.034;3.742;2023-03-14T08:00:41;6.07;;;2.47;;
34019;SDS011;20895;51.034;3.742;2023-03-14T08:03:06;5.22;;;1.80;;
34019;SDS011;20895;51.034;3.742;2023-03-14T08:05:35;9.45;;;2.60;;
34019;SDS011;20895;51.034;3.742;2023-03-14T08:08:00;2.53;;;1.73;;
34019;SDS011;20895;51.034;3.742;2023-03-14T08:10:26;5.45;;;2.85;;
34019;SDS011;20895;51.034;3.742;2023-03-14T08:12:53;4.47;;;2.20;;
34019;SDS011;20895;51.034;3.742;2023-03-14T08:15:19;4.07;;;1.92;;
34019;SDS011;20895;51.034;3.742;2023-03-14T08:17:44;5.95;;;2.53;;
34019;SDS011;20895;51.034;3.742;2023-03-14T08:20:10;9.15;;;4.60;;
34019;SDS011;20895;51.034;3.742;2023-03-14T08:22:36;3.20;;;2.55;;
34019;SDS011;20895;51.034;3.742;2023-03-14T08:25:02;8.73;;;2.80;;
34019;SDS011;20895;51.034;3.742;2023-03-14T08:27:28;4.85;;;2.95;;
34019;SDS011;20895;51.034;3.742;2023-03-14T08:29:53;5.47;;;2.90;;
34019;SDS011;20895;51.034;3.742;2023-03-14T08:32:19;7.43;;;3.25;;
34019;SDS011;20895;51.034;3.742;2023-03-14T08:34:45;5.60;;;3.03;;
34019;SDS011;20895;51.034;3.742;2023-03-14T08:37:10;6.40;;;2.55;;
34019;SDS011;20895;51.034;3.742;2023-03-14T08:39:35;3.88;;;2.83;;
34019;SDS011;20895;51.034;3.742;2023-03-14T08:42:01;6.90;;;3.13;;
34019;SDS011;20895;51.034;3.742;2023-03-14T08:44:26;6.40;;;3.22;;
34019;SDS011;20895;51.034;3.742;2023-03-14T08:46:51;8.00;;;3.53;;
34019;SDS011;20895;51.034;3.742;2023-03-14T08:49:17;5.22;;;3.00;;
34019;SDS011;20895;51.034;3.742;2023-03-14T08:51:42;10.02;;;3.28;;
34019;SDS011;20895;51.034;3.742;2023-03-14T08:54:09;8.13;;;2.60;;
34019;SDS011;20895;51.034;3.742;2023-03-14T08:56:35;9.00;;;3.22;;
34019;SDS011;20895;51.034;3.742;2023-03-14T08:59:02;10.13;;;2.63;;
34019;SDS011;20895;51.034;3.742;2023-03-14T09:01:28;6.68;;;2.88;;
34019;SDS011;20895;51.034;3.742;2023-03-14T09:03:53;9.10;;;3.28;;
34019;SDS011;20895;51.034;3.742;2023-03-14T09:06:18;10.88;;;3.47;;
34019;SDS011;20895;51.034;3.742;2023-03-14T09:08:44;11.85;;;4.20;;
34019;SDS011;20895;51.034;3.742;2023-03-14T09:11:10;5.03;;;2.20;;
34019;SDS011;20895;51.034;3.742;2023-03-14T09:13:35;10.10;;;2.80;;
34019;SDS011;20895;51.034;3.742;2023-03-14T09:16:01;10.43;;;3.33;;
34019;SDS011;20895;51.034;3.742;2023-03-14T09:18:26;8.80;;;2.67;;
34019;SDS011;20895;51.034;3.742;2023-03-14T09:20:51;8.85;;;2.60;;
34019;SDS011;20895;51.034;3.742;2023-03-14T09:23:17;10.07;;;3.10;;
34019;SDS011;20895;51.034;3.742;2023-03-14T09:25:42;7.38;;;2.60;;
34019;SDS011;20895;51.034;3.742;2023-03-14T09:28:07;9.07;;;3.08;;
34019;SDS011;20895;51.034;3.742;2023-03-14T09:30:33;8.30;;;3.28;;
34019;SDS011;20895;51.034;3.742;2023-03-14T09:32:58;5.60;;;1.73;;
34019;SDS011;20895;51.034;3.742;2023-03-14T09:35:24;7.43;;;2.15;;
34019;SDS011;20895;51.034;3.742;2023-03-14T09:37:49;1.95;;;1.40;;
34019;SDS011;20895;51.034;3.742;2023-03-14T09:40:15;5.57;;;1.70;;
34019;SDS011;20895;51.034;3.742;2023-03-14T09:42:42;7.32;;;2.55;;
34019;SDS011;20895;51.034;3.742;2023-03-14T09:45:23;12.23;;;2.55;;
34019;SDS011;20895;51.034;3.742;2023-03-14T09:47:49;8.55;;;2.38;;
34019;SDS011;20895;51.034;3.742;2023-03-14T09:50:15;6.65;;;2.47;;
34019;SDS011;20895;51.034;3.742;2023-03-14T09:52:41;5.75;;;1.45;;
34019;SDS011;20895;51.034;3.742;2023-03-14T09:55:21;11.05;;;2.50;;
34019;SDS011;20895;51.034;3.742;2023-03-14T09:57:46;6.53;;;1.88;;
34019;SDS011;20895;51.034;3.742;2023-03-14T10:00:17;4.28;;;1.48;;
34019;SDS011;20895;51.034;3.742;2023-03-14T10:02:45;2.45;;;1.40;;
34019;SDS011;20895;51.034;3.742;2023-03-14T10:05:15;6.90;;;2.28;;
34019;SDS011;20895;51.034;3.742;2023-03-14T10:07:41;4.22;;;1.65;;
34019;SDS011;20895;51.034;3.742;2023-03-14T10:10:13;8.15;;;2.40;;
34019;SDS011;20895;51.034;3.742;2023-03-14T10:12:41;6.57;;;1.73;;
34019;SDS011;20895;51.034;3.742;2023-03-14T10:17:43;1.52;;;1.00;;
34019;SDS011;20895;51.034;3.742;2023-03-14T10:22:56;2.35;;;0.90;;
34019;SDS011;20895;51.034;3.742;2023-03-14T10:25:35;6.10;;;1.20;;
34019;SDS011;20895;51.034;3.742;2023-03-14T10:28:00;1.27;;;0.88;;
34019;SDS011;20895;51.034;3.742;2023-03-14T10:30:47;4.03;;;1.10;;
34019;SDS011;20895;51.034;3.742;2023-03-14T10:35:43;4.05;;;1.95;;
34019;SDS011;20895;51.034;3.742;2023-03-14T10:38:12;2.60;;;1.88;;
34019;SDS011;20895;51.034;3.742;2023-03-14T10:40:38;6.88;;;1.58;;
34019;SDS011;20895;51.034;3.742;2023-03-14T10:43:05;3.22;;;1.27;;
34019;SDS011;20895;51.034;3.742;2023-03-14T10:45:32;6.95;;;1.70;;
34019;SDS011;20895;51.034;3.742;2023-03-14T10:48:18;6.15;;;1.80;;
34019;SDS011;20895;51.034;3.742;2023-03-14T10:50:48;3.70;;;1.48;;
34019;SDS011;20895;51.034;3.742;2023-03-14T10:53:16;2.70;;;1.38;;
34019;SDS011;20895;51.034;3.742;2023-03-14T10:55:42;3.63;;;1.38;;
34019;SDS011;20895;51.034;3.742;2023-03-14T10:58:19;4.05;;;1.75;;
34019;SDS011;20895;51.034;3.742;2023-03-14T11:00:46;1.38;;;1.00;;
34019;SDS011;20895;51.034;3.742;2023-03-14T11:03:12;3.15;;;1.67;;
34019;SDS011;20895;51.034;3.742;2023-03-14T11:05:53;6.57;;;1.75;;
34019;SDS011;20895;51.034;3.742;2023-03-14T11:08:29;4.78;;;2.90;;
34019;SDS011;20895;51.034;3.742;2023-03-14T11:13:43;3.83;;;1.20;;
34019;SDS011;20895;51.034;3.742;2023-03-14T11:16:27;3.45;;;1.35;;
34019;SDS011;20895;51.034;3.742;2023-03-14T11:32:04;3.72;;;1.60;;
34019;SDS011;20895;51.034;3.742;2023-03-14T11:39:29;9.60;;;1.88;;
34019;SDS011;20895;51.034;3.742;2023-03-14T11:41:59;5.57;;;2.38;;
34019;SDS011;20895;51.034;3.742;2023-03-14T11:46:57;11.07;;;2.10;;
34019;SDS011;20895;51.034;3.742;2023-03-14T11:49:38;5.00;;;1.58;;
34019;SDS011;20895;51.034;3.742;2023-03-14T11:52:09;7.38;;;2.08;;
34019;SDS011;20895;51.034;3.742;2023-03-14T11:54:50;9.77;;;3.10;;
34019;SDS011;20895;51.034;3.742;2023-03-14T11:57:17;16.20;;;3.90;;
34019;SDS011;20895;51.034;3.742;2023-03-14T12:07:18;21.10;;;3.42;;
34019;SDS011;20895;51.034;3.742;2023-03-14T12:09:44;8.27;;;2.80;;
34019;SDS011;20895;51.034;3.742;2023-03-14T12:12:12;20.98;;;4.55;;
34019;SDS011;20895;51.034;3.742;2023-03-14T12:14:43;22.52;;;4.82;;
34019;SDS011;20895;51.034;3.742;2023-03-14T12:17:20;15.85;;;3.92;;
34019;SDS011;20895;51.034;3.742;2023-03-14T12:19:46;16.02;;;3.13;;
34019;SDS011;20895;51.034;3.742;2023-03-14T12:22:24;21.88;;;3.28;;
34019;SDS011;20895;51.034;3.742;2023-03-14T12:24:58;9.95;;;2.95;;
34019;SDS011;20895;51.034;3.742;2023-03-14T12:27:41;12.32;;;3.00;;
34019;SDS011;20895;51.034;3.742;2023-03-14T12:30:14;11.80;;;2.55;;
34019;SDS011;20895;51.034;3.742;2023-03-14T12:32:40;21.13;;;3.63;;
34019;SDS011;20895;51.034;3.742;2023-03-14T12:37:49;14.23;;;3.17;;
34019;SDS011;20895;51.034;3.742;2023-03-14T12:40:29;17.70;;;4.60;;
34019;SDS011;20895;51.034;3.742;2023-03-14T12:42:59;28.20;;;5.82;;
34019;SDS011;20895;51.034;3.742;2023-03-14T12:45:26;14.43;;;4.10;;
34019;SDS011;20895;51.034;3.742;2023-03-14T12:47:56;17.27;;;4.70;;
34019;SDS011;20895;51.034;3.742;2023-03-14T12:50:26;11.75;;;4.43;;
34019;SDS011;20895;51.034;3.742;2023-03-14T12:55:43;12.75;;;3.38;;
34019;SDS011;20895;51.034;3.742;2023-03-14T13:00:51;12.98;;;3.22;;
34019;SDS011;20895;51.034;3.742;2023-03-14T13:03:20;17.02;;;3.42;;
34019;SDS011;20895;51.034;3.742;2023-03-14T13:08:36;14.75;;;3.00;;
34019;SDS011;20895;51.034;3.742;2023-03-14T13:11:03;22.20;;;4.70;;
34019;SDS011;20895;51.034;3.742;2023-03-14T13:13:30;15.50;;;2.97;;
34019;SDS011;20895;51.034;3.742;2023-03-14T13:15:56;31.42;;;9.30;;
34019;SDS011;20895;51.034;3.742;2023-03-14T13:18:44;15.45;;;3.30;;
34019;SDS011;20895;51.034;3.742;2023-03-14T13:21:17;12.20;;;3.50;;
34019;SDS011;20895;51.034;3.742;2023-03-14T13:23:57;16.77;;;2.83;;
34019;SDS011;20895;51.034;3.742;2023-03-14T13:26:23;15.23;;;3.53;;
34019;SDS011;20895;51.034;3.742;2023-03-14T13:28:49;9.95;;;2.20;;
34019;SDS011;20895;51.034;3.742;2023-03-14T13:31:24;14.25;;;3.58;;
34019;SDS011;20895;51.034;3.742;2023-03-14T13:33:56;15.98;;;2.80;;
34019;SDS011;20895;51.034;3.742;2023-03-14T13:36:22;15.95;;;2.90;;
34019;SDS011;20895;51.034;3.742;2023-03-14T13:38:54;10.68;;;2.50;;
34019;SDS011;20895;51.034;3.742;2023-03-14T13:41:20;12.80;;;3.13;;
34019;SDS011;20895;51.034;3.742;2023-03-14T13:43:45;13.55;;;2.65;;
34019;SDS011;20895;51.034;3.742;2023-03-14T13:46:14;13.20;;;2.92;;
34019;SDS011;20895;51.034;3.742;2023-03-14T13:48:43;13.40;;;2.13;;
34019;SDS011;20895;51.034;3.742;2023-03-14T13:51:10;14.60;;;2.55;;
34019;SDS011;20895;51.034;3.742;2023-03-14T13:53:46;9.20;;;1.80;;
34019;SDS011;20895;51.034;3.742;2023-03-14T13:56:12;8.63;;;2.05;;
34019;SDS011;20895;51.034;3.742;2023-03-14T13:58:38;9.98;;;2.17;;
34019;SDS011;20895;51.034;3.742;2023-03-14T14:01:14;10.73;;;2.30;;
34019;SDS011;20895;51.034;3.742;2023-03-14T14:03:41;5.63;;;2.15;;
34019;SDS011;20895;51.034;3.742;2023-03-14T14:06:11;6.35;;;1.77;;
34019;SDS011;20895;51.034;3.742;2023-03-14T14:08:41;14.95;;;3.92;;
34019;SDS011;20895;51.034;3.742;2023-03-14T14:11:08;6.82;;;1.45;;
34019;SDS011;20895;51.034;3.742;2023-03-14T14:13:37;4.93;;;1.52;;
34019;SDS011;20895;51.034;3.742;2023-03-14T14:16:02;9.15;;;1.85;;
34019;SDS011;20895;51.034;3.742;2023-03-14T14:18:29;8.98;;;1.25;;
34019;SDS011;20895;51.034;3.742;2023-03-14T14:20:56;5.38;;;1.60;;
34019;SDS011;20895;51.034;3.742;2023-03-14T14:23:22;5.20;;;0.90;;
34019;SDS011;20895;51.034;3.742;2023-03-14T14:25:53;4.20;;;1.27;;
34019;SDS011;20895;51.034;3.742;2023-03-14T14:33:25;19.25;;;7.50;;
34019;SDS011;20895;51.034;3.742;2023-03-14T14:35:51;30.13;;;10.23;;
34019;SDS011;20895;51.034;3.742;2023-03-14T14:38:17;3.72;;;1.02;;
34019;SDS011;20895;51.034;3.742;2023-03-14T14:40:45;5.15;;;2.58;;
34019;SDS011;20895;51.034;3.742;2023-03-14T14:43:14;5.15;;;2.72;;
34019;SDS011;20895;51.034;3.742;2023-03-14T14:45:42;3.35;;;1.02;;
34019;SDS011;20895;51.034;3.742;2023-03-14T14:48:09;3.60;;;0.95;;
34019;SDS011;20895;51.034;3.742;2023-03-14T14:53:23;4.57;;;1.15;;
34019;SDS011;20895;51.034;3.742;2023-03-14T14:55:50;4.22;;;1.17;;
34019;SDS011;20895;51.034;3.742;2023-03-14T15:00:49;6.30;;;1.50;;
34019;SDS011;20895;51.034;3.742;2023-03-14T15:03:16;3.90;;;1.50;;
34019;SDS011;20895;51.034;3.742;2023-03-14T15:05:41;5.03;;;1.60;;
34019;SDS011;20895;51.034;3.742;2023-03-14T15:08:09;5.60;;;2.42;;
34019;SDS011;20895;51.034;3.742;2023-03-14T15:10:35;4.32;;;1.00;;
34019;SDS011;20895;51.034;3.742;2023-03-14T15:13:00;4.35;;;1.10;;
34019;SDS011;20895;51.034;3.742;2023-03-14T15:15:25;3.38;;;1.33;;
34019;SDS011;20895;51.034;3.742;2023-03-14T15:17:51;8.05;;;1.17;;
34019;SDS011;20895;51.034;3.742;2023-03-14T15:20:16;9.82;;;1.70;;
34019;SDS011;20895;51.034;3.742;2023-03-14T15:22:42;16.35;;;2.97;;
34019;SDS011;20895;51.034;3.742;2023-03-14T15:25:08;6.95;;;1.58;;
34019;SDS011;20895;51.034;3.742;2023-03-14T15:27:34;9.63;;;3.58;;
34019;SDS011;20895;51.034;3.742;2023-03-14T15:30:00;12.75;;;4.60;;
34019;SDS011;20895;51.034;3.742;2023-03-14T15:32:26;6.30;;;1.63;;
34019;SDS011;20895;51.034;3.742;2023-03-14T15:34:55;8.90;;;2.25;;
34019;SDS011;20895;51.034;3.742;2023-03-14T15:37:20;10.80;;;2.97;;
34019;SDS011;20895;51.034;3.742;2023-03-14T15:39:46;11.25;;;2.58;;
34019;SDS011;20895;51.034;3.742;2023-03-14T15:42:11;13.10;;;2.47;;
34019;SDS011;20895;51.034;3.742;2023-03-14T15:44:37;13.85;;;2.80;;
34019;SDS011;20895;51.034;3.742;2023-03-14T15:47:04;5.85;;;2.50;;
34019;SDS011;20895;51.034;3.742;2023-03-14T15:49:29;12.40;;;3.03;;
34019;SDS011;20895;51.034;3.742;2023-03-14T15:51:54;9.40;;;1.80;;
34019;SDS011;20895;51.034;3.742;2023-03-14T15:54:20;32.55;;;15.85;;
34019;SDS011;20895;51.034;3.742;2023-03-14T15:56:46;53.92;;;25.13;;